sensor_id;sensor_type;location;lat;lon;timestamp;P1;durP1;ratioP1;P2;durP2;ratioP2
54517;SDS011;40423;53.176;6.002;2022-08-03T00:01:27;8.60;;;4.70;;
54517;SDS011;40423;53.176;6.002;2022-08-03T00:03:53;11.02;;;4.70;;
54517;SDS011;40423;53.176;6.002;2022-08-03T00:06:19;9.90;;;4.65;;
54517;SDS011;40423;53.176;6.002;2022-08-03T00:08:45;13.60;;;4.95;;
54517;SDS011;40423;53.176;6.002;2022-08-03T00:11:10;7.57;;;4.30;;
54517;SDS011;40423;53.176;6.002;2022-08-03T00:13:36;8.30;;;4.10;;
54517;SDS011;40423;53.176;6.002;2022-08-03T00:16:02;13.55;;;4.72;;
54517;SDS011;40423;53.176;6.002;2022-08-03T00:18:28;8.02;;;3.75;;
54517;SDS011;40423;53.176;6.002;2022-08-03T00:20:54;8.52;;;3.63;;
54517;SDS011;40423;53.176;6.002;2022-08-03T00:23:20;11.52;;;4.57;;
54517;SDS011;40423;53.176;6.002;2022-08-03T00:25:46;11.30;;;4.10;;
54517;SDS011;40423;53.176;6.002;2022-08-03T00:28:11;6.78;;;3.35;;
54517;SDS011;40423;53.176;6.002;2022-08-03T00:30:37;9.43;;;3.88;;
54517;SDS011;40423;53.176;6.002;2022-08-03T00:33:03;9.80;;;4.70;;
54517;SDS011;40423;53.176;6.002;2022-08-03T00:35:29;8.43;;;4.15;;
54517;SDS011;40423;53.176;6.002;2022-08-03T00:37:56;6.85;;;4.07;;
54517;SDS011;40423;53.176;6.002;2022-08-03T00:40:21;7.28;;;4.15;;
54517;SDS011;40423;53.176;6.002;2022-08-03T00:42:48;9.38;;;4.60;;
54517;SDS011;40423;53.176;6.002;2022-08-03T00:45:34;7.35;;;4.10;;
54517;SDS011;40423;53.176;6.002;2022-08-03T00:48:02;8.23;;;4.05;;
54517;SDS011;40423;53.176;6.002;2022-08-03T00:50:29;10.88;;;4.50;;
54517;SDS011;40423;53.176;6.002;2022-08-03T00:52:59;7.57;;;3.97;;
54517;SDS011;40423;53.176;6.002;2022-08-03T00:55:25;8.10;;;4.00;;
54517;SDS011;40423;53.176;6.002;2022-08-03T00:57:52;9.27;;;4.32;;
54517;SDS011;40423;53.176;6.002;2022-08-03T01:00:19;5.18;;;3.45;;
54517;SDS011;40423;53.176;6.002;2022-08-03T01:02:46;11.40;;;3.97;;
54517;SDS011;40423;53.176;6.002;2022-08-03T01:05:12;8.40;;;4.38;;
54517;SDS011;40423;53.176;6.002;2022-08-03T01:10:44;8.60;;;3.80;;
54517;SDS011;40423;53.176;6.002;2022-08-03T01:19:00;9.95;;;4.07;;
54517;SDS011;40423;53.176;6.002;2022-08-03T01:27:25;9.30;;;3.67;;
54517;SDS011;40423;53.176;6.002;2022-08-03T01:30:10;10.52;;;4.10;;
54517;SDS011;40423;53.176;6.002;2022-08-03T01:35:47;7.95;;;3.50;;
54517;SDS011;40423;53.176;6.002;2022-08-03T01:38:23;6.22;;;3.42;;
54517;SDS011;40423;53.176;6.002;2022-08-03T01:40:53;6.63;;;3.30;;
54517;SDS011;40423;53.176;6.002;2022-08-03T01:43:23;6.05;;;3.38;;
54517;SDS011;40423;53.176;6.002;2022-08-03T01:45:54;6.45;;;3.70;;
54517;SDS011;40423;53.176;6.002;2022-08-03T01:48:22;7.47;;;3.40;;
54517;SDS011;40423;53.176;6.002;2022-08-03T01:50:48;10.60;;;3.95;;
54517;SDS011;40423;53.176;6.002;2022-08-03T01:53:16;6.35;;;2.97;;
54517;SDS011;40423;53.176;6.002;2022-08-03T01:55:45;7.68;;;3.63;;
54517;SDS011;40423;53.176;6.002;2022-08-03T01:58:12;4.32;;;3.05;;
54517;SDS011;40423;53.176;6.002;2022-08-03T02:00:40;8.95;;;3.83;;
54517;SDS011;40423;53.176;6.002;2022-08-03T02:03:07;8.65;;;3.85;;
54517;SDS011;40423;53.176;6.002;2022-08-03T02:05:36;9.77;;;3.72;;
54517;SDS011;40423;53.176;6.002;2022-08-03T02:08:04;10.45;;;3.53;;
54517;SDS011;40423;53.176;6.002;2022-08-03T02:10:34;9.80;;;3.35;;
54517;SDS011;40423;53.176;6.002;2022-08-03T02:13:02;7.20;;;3.28;;
54517;SDS011;40423;53.176;6.002;2022-08-03T02:15:30;6.35;;;3.10;;
54517;SDS011;40423;53.176;6.002;2022-08-03T02:17:59;10.75;;;3.72;;
54517;SDS011;40423;53.176;6.002;2022-08-03T02:20:26;8.95;;;3.10;;
54517;SDS011;40423;53.176;6.002;2022-08-03T02:22:54;7.78;;;3.28;;
54517;SDS011;40423;53.176;6.002;2022-08-03T02:25:20;8.70;;;2.97;;
54517;SDS011;40423;53.176;6.002;2022-08-03T02:27:55;9.18;;;3.67;;
54517;SDS011;40423;53.176;6.002;2022-08-03T02:30:28;7.80;;;3.80;;
54517;SDS011;40423;53.176;6.002;2022-08-03T02:33:01;6.78;;;3.97;;
54517;SDS011;40423;53.176;6.002;2022-08-03T02:35:27;4.35;;;2.67;;
54517;SDS011;40423;53.176;6.002;2022-08-03T02:37:56;8.55;;;3.47;;
54517;SDS011;40423;53.176;6.002;2022-08-03T02:40:25;7.45;;;2.75;;
54517;SDS011;40423;53.176;6.002;2022-08-03T02:42:54;10.20;;;3.30;;
54517;SDS011;40423;53.176;6.002;2022-08-03T02:45:22;12.63;;;3.28;;
54517;SDS011;40423;53.176;6.002;2022-08-03T02:47:49;8.13;;;2.85;;
54517;SDS011;40423;53.176;6.002;2022-08-03T02:50:19;8.52;;;3.30;;
54517;SDS011;40423;53.176;6.002;2022-08-03T02:52:47;6.05;;;2.80;;
54517;SDS011;40423;53.176;6.002;2022-08-03T02:55:13;8.02;;;2.75;;
54517;SDS011;40423;53.176;6.002;2022-08-03T02:57:41;8.27;;;3.28;;
54517;SDS011;40423;53.176;6.002;2022-08-03T03:00:08;9.65;;;2.80;;
54517;SDS011;40423;53.176;6.002;2022-08-03T03:02:35;9.40;;;2.95;;
54517;SDS011;40423;53.176;6.002;2022-08-03T03:05:02;8.52;;;2.55;;
54517;SDS011;40423;53.176;6.002;2022-08-03T03:07:28;8.70;;;3.13;;
54517;SDS011;40423;53.176;6.002;2022-08-03T03:09:55;9.52;;;2.85;;
54517;SDS011;40423;53.176;6.002;2022-08-03T03:12:21;13.68;;;2.85;;
54517;SDS011;40423;53.176;6.002;2022-08-03T03:14:47;8.50;;;3.45;;
54517;SDS011;40423;53.176;6.002;2022-08-03T03:17:13;10.18;;;3.15;;
54517;SDS011;40423;53.176;6.002;2022-08-03T03:19:40;9.15;;;3.53;;
54517;SDS011;40423;53.176;6.002;2022-08-03T03:22:09;6.90;;;3.05;;
54517;SDS011;40423;53.176;6.002;2022-08-03T03:24:36;6.70;;;3.05;;
54517;SDS011;40423;53.176;6.002;2022-08-03T03:27:03;10.70;;;3.17;;
54517;SDS011;40423;53.176;6.002;2022-08-03T03:29:30;11.23;;;3.08;;
54517;SDS011;40423;53.176;6.002;2022-08-03T03:31:57;15.70;;;3.03;;
54517;SDS011;40423;53.176;6.002;2022-08-03T03:34:23;7.55;;;2.83;;
54517;SDS011;40423;53.176;6.002;2022-08-03T03:36:49;10.70;;;3.15;;
54517;SDS011;40423;53.176;6.002;2022-08-03T03:39:14;10.13;;;3.42;;
54517;SDS011;40423;53.176;6.002;2022-08-03T03:41:40;12.18;;;3.35;;
54517;SDS011;40423;53.176;6.002;2022-08-03T03:44:06;7.70;;;3.25;;
54517;SDS011;40423;53.176;6.002;2022-08-03T03:46:32;7.85;;;2.92;;
54517;SDS011;40423;53.176;6.002;2022-08-03T03:48:58;8.23;;;3.00;;
54517;SDS011;40423;53.176;6.002;2022-08-03T03:51:24;8.32;;;2.88;;
54517;SDS011;40423;53.176;6.002;2022-08-03T03:53:56;10.40;;;3.53;;
54517;SDS011;40423;53.176;6.002;2022-08-03T03:56:23;9.98;;;2.88;;
54517;SDS011;40423;53.176;6.002;2022-08-03T03:58:49;8.75;;;3.50;;
54517;SDS011;40423;53.176;6.002;2022-08-03T04:01:15;14.23;;;4.18;;
54517;SDS011;40423;53.176;6.002;2022-08-03T04:03:41;9.77;;;2.90;;
54517;SDS011;40423;53.176;6.002;2022-08-03T04:06:07;8.88;;;3.20;;
54517;SDS011;40423;53.176;6.002;2022-08-03T04:08:51;7.45;;;2.67;;
54517;SDS011;40423;53.176;6.002;2022-08-03T04:16:32;12.98;;;3.45;;
54517;SDS011;40423;53.176;6.002;2022-08-03T04:19:02;9.05;;;3.13;;
54517;SDS011;40423;53.176;6.002;2022-08-03T04:21:31;9.55;;;3.53;;
54517;SDS011;40423;53.176;6.002;2022-08-03T04:24:00;7.88;;;3.13;;
54517;SDS011;40423;53.176;6.002;2022-08-03T04:26:32;8.25;;;2.80;;
54517;SDS011;40423;53.176;6.002;2022-08-03T04:29:00;7.85;;;2.92;;
54517;SDS011;40423;53.176;6.002;2022-08-03T04:31:28;7.47;;;3.03;;
54517;SDS011;40423;53.176;6.002;2022-08-03T04:33:54;11.00;;;3.67;;
54517;SDS011;40423;53.176;6.002;2022-08-03T04:36:21;8.13;;;3.38;;
54517;SDS011;40423;53.176;6.002;2022-08-03T04:41:27;12.55;;;3.80;;
54517;SDS011;40423;53.176;6.002;2022-08-03T04:43:55;10.73;;;3.90;;
54517;SDS011;40423;53.176;6.002;2022-08-03T04:46:24;14.50;;;4.15;;
54517;SDS011;40423;53.176;6.002;2022-08-03T04:48:52;10.23;;;4.07;;
54517;SDS011;40423;53.176;6.002;2022-08-03T04:51:19;8.40;;;3.50;;
54517;SDS011;40423;53.176;6.002;2022-08-03T04:53:45;9.65;;;3.78;;
54517;SDS011;40423;53.176;6.002;2022-08-03T04:56:10;7.93;;;3.15;;
54517;SDS011;40423;53.176;6.002;2022-08-03T04:58:36;10.45;;;3.72;;
54517;SDS011;40423;53.176;6.002;2022-08-03T05:01:02;10.82;;;3.95;;
54517;SDS011;40423;53.176;6.002;2022-08-03T05:03:27;7.57;;;3.35;;
54517;SDS011;40423;53.176;6.002;2022-08-03T05:05:54;8.38;;;3.78;;
54517;SDS011;40423;53.176;6.002;2022-08-03T05:08:20;9.82;;;4.05;;
54517;SDS011;40423;53.176;6.002;2022-08-03T05:10:46;12.70;;;4.18;;
54517;SDS011;40423;53.176;6.002;2022-08-03T05:13:12;9.95;;;3.90;;
54517;SDS011;40423;53.176;6.002;2022-08-03T05:15:38;9.38;;;3.70;;
54517;SDS011;40423;53.176;6.002;2022-08-03T05:18:05;6.60;;;3.70;;
54517;SDS011;40423;53.176;6.002;2022-08-03T05:20:31;17.98;;;4.78;;
54517;SDS011;40423;53.176;6.002;2022-08-03T05:22:57;14.68;;;4.20;;
54517;SDS011;40423;53.176;6.002;2022-08-03T05:25:25;15.95;;;6.40;;
54517;SDS011;40423;53.176;6.002;2022-08-03T05:27:51;11.07;;;3.75;;
54517;SDS011;40423;53.176;6.002;2022-08-03T05:30:17;8.52;;;3.63;;
54517;SDS011;40423;53.176;6.002;2022-08-03T05:32:43;13.82;;;4.13;;
54517;SDS011;40423;53.176;6.002;2022-08-03T05:35:09;10.07;;;3.97;;
54517;SDS011;40423;53.176;6.002;2022-08-03T05:37:35;11.30;;;3.85;;
54517;SDS011;40423;53.176;6.002;2022-08-03T05:40:01;13.75;;;4.07;;
54517;SDS011;40423;53.176;6.002;2022-08-03T05:42:28;12.68;;;4.53;;
54517;SDS011;40423;53.176;6.002;2022-08-03T05:44:53;9.70;;;3.45;;
54517;SDS011;40423;53.176;6.002;2022-08-03T05:47:19;14.02;;;4.10;;
54517;SDS011;40423;53.176;6.002;2022-08-03T05:49:45;13.10;;;4.47;;
54517;SDS011;40423;53.176;6.002;2022-08-03T05:52:11;12.73;;;4.78;;
54517;SDS011;40423;53.176;6.002;2022-08-03T05:54:37;9.70;;;3.65;;
54517;SDS011;40423;53.176;6.002;2022-08-03T05:57:02;8.90;;;4.20;;
54517;SDS011;40423;53.176;6.002;2022-08-03T05:59:28;16.20;;;4.22;;
54517;SDS011;40423;53.176;6.002;2022-08-03T06:01:54;10.52;;;3.92;;
54517;SDS011;40423;53.176;6.002;2022-08-03T06:04:20;10.82;;;4.28;;
54517;SDS011;40423;53.176;6.002;2022-08-03T06:06:45;11.30;;;4.55;;
54517;SDS011;40423;53.176;6.002;2022-08-03T06:09:12;12.88;;;4.60;;
54517;SDS011;40423;53.176;6.002;2022-08-03T06:11:38;10.93;;;4.43;;
54517;SDS011;40423;53.176;6.002;2022-08-03T06:14:05;11.02;;;4.03;;
54517;SDS011;40423;53.176;6.002;2022-08-03T06:16:31;14.52;;;4.38;;
54517;SDS011;40423;53.176;6.002;2022-08-03T06:18:57;13.00;;;4.75;;
54517;SDS011;40423;53.176;6.002;2022-08-03T06:21:23;12.13;;;4.10;;
54517;SDS011;40423;53.176;6.002;2022-08-03T06:23:49;16.40;;;4.18;;
54517;SDS011;40423;53.176;6.002;2022-08-03T06:26:14;13.93;;;4.07;;
54517;SDS011;40423;53.176;6.002;2022-08-03T06:28:40;12.95;;;4.30;;
54517;SDS011;40423;53.176;6.002;2022-08-03T06:31:09;13.57;;;4.65;;
54517;SDS011;40423;53.176;6.002;2022-08-03T06:33:34;14.30;;;4.90;;
54517;SDS011;40423;53.176;6.002;2022-08-03T06:36:00;8.73;;;4.43;;
54517;SDS011;40423;53.176;6.002;2022-08-03T06:38:26;12.77;;;5.28;;
54517;SDS011;40423;53.176;6.002;2022-08-03T06:40:53;15.60;;;5.35;;
54517;SDS011;40423;53.176;6.002;2022-08-03T06:43:19;11.98;;;5.47;;
54517;SDS011;40423;53.176;6.002;2022-08-03T06:45:44;12.70;;;5.43;;
54517;SDS011;40423;53.176;6.002;2022-08-03T06:48:10;14.63;;;6.38;;
54517;SDS011;40423;53.176;6.002;2022-08-03T06:50:37;13.80;;;6.68;;
54517;SDS011;40423;53.176;6.002;2022-08-03T06:53:05;17.45;;;6.20;;
54517;SDS011;40423;53.176;6.002;2022-08-03T06:55:33;12.80;;;5.80;;
54517;SDS011;40423;53.176;6.002;2022-08-03T06:57:59;15.68;;;6.55;;
54517;SDS011;40423;53.176;6.002;2022-08-03T07:00:25;11.00;;;5.35;;
54517;SDS011;40423;53.176;6.002;2022-08-03T07:02:52;14.40;;;5.82;;
54517;SDS011;40423;53.176;6.002;2022-08-03T07:05:19;15.13;;;5.43;;
54517;SDS011;40423;53.176;6.002;2022-08-03T07:07:45;14.75;;;5.07;;
54517;SDS011;40423;53.176;6.002;2022-08-03T07:10:11;11.25;;;4.43;;
54517;SDS011;40423;53.176;6.002;2022-08-03T07:12:37;15.75;;;5.40;;
54517;SDS011;40423;53.176;6.002;2022-08-03T07:15:03;18.58;;;6.63;;
54517;SDS011;40423;53.176;6.002;2022-08-03T07:17:31;17.33;;;6.25;;
54517;SDS011;40423;53.176;6.002;2022-08-03T07:19:58;17.85;;;6.32;;
54517;SDS011;40423;53.176;6.002;2022-08-03T07:22:24;17.30;;;6.13;;
54517;SDS011;40423;53.176;6.002;2022-08-03T07:24:50;13.35;;;6.05;;
54517;SDS011;40423;53.176;6.002;2022-08-03T07:27:15;17.58;;;6.15;;
54517;SDS011;40423;53.176;6.002;2022-08-03T07:29:41;19.52;;;5.95;;
54517;SDS011;40423;53.176;6.002;2022-08-03T07:32:07;13.32;;;5.22;;
54517;SDS011;40423;53.176;6.002;2022-08-03T07:34:32;20.25;;;6.00;;
54517;SDS011;40423;53.176;6.002;2022-08-03T07:36:58;17.25;;;6.50;;
54517;SDS011;40423;53.176;6.002;2022-08-03T07:39:24;20.25;;;7.18;;
54517;SDS011;40423;53.176;6.002;2022-08-03T07:41:50;21.58;;;7.03;;
54517;SDS011;40423;53.176;6.002;2022-08-03T07:44:19;21.60;;;7.97;;
54517;SDS011;40423;53.176;6.002;2022-08-03T07:46:45;15.88;;;7.80;;
54517;SDS011;40423;53.176;6.002;2022-08-03T07:49:11;17.33;;;7.25;;
54517;SDS011;40423;53.176;6.002;2022-08-03T07:51:37;18.70;;;9.10;;
54517;SDS011;40423;53.176;6.002;2022-08-03T07:54:03;16.48;;;8.77;;
54517;SDS011;40423;53.176;6.002;2022-08-03T07:56:29;20.20;;;8.25;;
54517;SDS011;40423;53.176;6.002;2022-08-03T07:58:55;22.48;;;8.15;;
54517;SDS011;40423;53.176;6.002;2022-08-03T08:01:22;15.10;;;8.13;;
54517;SDS011;40423;53.176;6.002;2022-08-03T08:03:48;19.35;;;8.38;;
54517;SDS011;40423;53.176;6.002;2022-08-03T08:06:15;18.85;;;9.32;;
54517;SDS011;40423;53.176;6.002;2022-08-03T08:08:41;17.20;;;8.32;;
54517;SDS011;40423;53.176;6.002;2022-08-03T08:11:07;18.92;;;9.25;;
54517;SDS011;40423;53.176;6.002;2022-08-03T08:13:33;19.98;;;8.68;;
54517;SDS011;40423;53.176;6.002;2022-08-03T08:16:01;20.38;;;9.82;;
54517;SDS011;40423;53.176;6.002;2022-08-03T08:18:27;16.80;;;9.15;;
54517;SDS011;40423;53.176;6.002;2022-08-03T08:20:56;19.90;;;9.02;;
54517;SDS011;40423;53.176;6.002;2022-08-03T08:23:22;17.65;;;9.30;;
54517;SDS011;40423;53.176;6.002;2022-08-03T08:25:48;20.20;;;9.40;;
54517;SDS011;40423;53.176;6.002;2022-08-03T08:28:19;19.38;;;9.32;;
54517;SDS011;40423;53.176;6.002;2022-08-03T08:30:46;25.58;;;10.40;;
54517;SDS011;40423;53.176;6.002;2022-08-03T08:33:12;19.38;;;9.25;;
54517;SDS011;40423;53.176;6.002;2022-08-03T08:35:38;16.88;;;9.30;;
54517;SDS011;40423;53.176;6.002;2022-08-03T08:38:03;17.85;;;8.80;;
54517;SDS011;40423;53.176;6.002;2022-08-03T08:40:29;18.30;;;8.95;;
54517;SDS011;40423;53.176;6.002;2022-08-03T08:42:55;21.38;;;10.00;;
54517;SDS011;40423;53.176;6.002;2022-08-03T08:45:21;19.15;;;8.85;;
54517;SDS011;40423;53.176;6.002;2022-08-03T08:47:47;20.52;;;10.13;;
54517;SDS011;40423;53.176;6.002;2022-08-03T08:50:16;22.45;;;10.77;;
54517;SDS011;40423;53.176;6.002;2022-08-03T08:52:45;17.33;;;9.30;;
54517;SDS011;40423;53.176;6.002;2022-08-03T08:55:13;20.50;;;10.55;;
54517;SDS011;40423;53.176;6.002;2022-08-03T08:57:48;22.70;;;11.70;;
54517;SDS011;40423;53.176;6.002;2022-08-03T09:00:20;22.23;;;11.65;;
54517;SDS011;40423;53.176;6.002;2022-08-03T09:02:45;18.23;;;10.43;;
54517;SDS011;40423;53.176;6.002;2022-08-03T09:05:12;17.45;;;11.30;;
54517;SDS011;40423;53.176;6.002;2022-08-03T09:07:43;22.73;;;10.77;;
54517;SDS011;40423;53.176;6.002;2022-08-03T09:10:10;23.15;;;11.82;;
54517;SDS011;40423;53.176;6.002;2022-08-03T09:12:38;18.45;;;11.05;;
54517;SDS011;40423;53.176;6.002;2022-08-03T09:15:17;20.83;;;12.25;;
54517;SDS011;40423;53.176;6.002;2022-08-03T09:17:44;20.90;;;10.75;;
54517;SDS011;40423;53.176;6.002;2022-08-03T09:20:10;18.30;;;10.80;;
54517;SDS011;40423;53.176;6.002;2022-08-03T09:22:44;25.15;;;13.02;;
54517;SDS011;40423;53.176;6.002;2022-08-03T09:25:41;42.35;;;20.63;;
54517;SDS011;40423;53.176;6.002;2022-08-03T09:28:11;22.02;;;12.05;;
54517;SDS011;40423;53.176;6.002;2022-08-03T09:30:39;16.77;;;10.60;;
54517;SDS011;40423;53.176;6.002;2022-08-03T09:33:07;24.73;;;11.73;;
54517;SDS011;40423;53.176;6.002;2022-08-03T09:35:47;19.45;;;10.00;;
54517;SDS011;40423;53.176;6.002;2022-08-03T09:40:53;23.65;;;10.45;;
54517;SDS011;40423;53.176;6.002;2022-08-03T09:43:20;21.58;;;11.77;;
54517;SDS011;40423;53.176;6.002;2022-08-03T09:45:46;25.33;;;12.15;;
54517;SDS011;40423;53.176;6.002;2022-08-03T09:50:54;19.88;;;10.60;;
54517;SDS011;40423;53.176;6.002;2022-08-03T09:53:21;23.75;;;10.43;;
54517;SDS011;40423;53.176;6.002;2022-08-03T09:55:55;18.80;;;9.45;;
54517;SDS011;40423;53.176;6.002;2022-08-03T09:58:23;19.13;;;10.98;;
54517;SDS011;40423;53.176;6.002;2022-08-03T10:00:54;20.60;;;10.25;;
54517;SDS011;40423;53.176;6.002;2022-08-03T10:03:27;21.95;;;10.93;;
54517;SDS011;40423;53.176;6.002;2022-08-03T10:06:14;19.55;;;11.15;;
54517;SDS011;40423;53.176;6.002;2022-08-03T10:08:41;21.63;;;12.25;;
54517;SDS011;40423;53.176;6.002;2022-08-03T10:11:07;19.52;;;10.65;;
54517;SDS011;40423;53.176;6.002;2022-08-03T10:13:32;22.55;;;11.18;;
54517;SDS011;40423;53.176;6.002;2022-08-03T10:16:00;21.38;;;12.32;;
54517;SDS011;40423;53.176;6.002;2022-08-03T10:18:28;23.33;;;11.48;;
54517;SDS011;40423;53.176;6.002;2022-08-03T10:20:58;21.08;;;11.88;;
54517;SDS011;40423;53.176;6.002;2022-08-03T10:23:28;18.15;;;11.23;;
54517;SDS011;40423;53.176;6.002;2022-08-03T10:26:00;21.85;;;11.70;;
54517;SDS011;40423;53.176;6.002;2022-08-03T10:28:32;20.67;;;10.77;;
54517;SDS011;40423;53.176;6.002;2022-08-03T10:31:00;24.92;;;12.32;;
54517;SDS011;40423;53.176;6.002;2022-08-03T10:33:27;34.58;;;11.48;;
54517;SDS011;40423;53.176;6.002;2022-08-03T10:35:56;51.10;;;13.95;;
54517;SDS011;40423;53.176;6.002;2022-08-03T10:39:06;20.63;;;12.07;;
54517;SDS011;40423;53.176;6.002;2022-08-03T10:41:17;20.90;;;9.45;;
54517;SDS011;40423;53.176;6.002;2022-08-03T10:44:29;19.92;;;10.75;;
54517;SDS011;40423;53.176;6.002;2022-08-03T10:46:35;17.85;;;10.32;;
54517;SDS011;40423;53.176;6.002;2022-08-03T10:49:03;32.88;;;11.93;;
54517;SDS011;40423;53.176;6.002;2022-08-03T10:51:30;18.98;;;9.43;;
54517;SDS011;40423;53.176;6.002;2022-08-03T10:53:57;23.33;;;12.27;;
54517;SDS011;40423;53.176;6.002;2022-08-03T10:59:17;23.10;;;10.90;;
54517;SDS011;40423;53.176;6.002;2022-08-03T11:01:49;23.90;;;10.82;;
54517;SDS011;40423;53.176;6.002;2022-08-03T11:04:17;27.02;;;9.45;;
54517;SDS011;40423;53.176;6.002;2022-08-03T11:06:44;19.23;;;8.93;;
54517;SDS011;40423;53.176;6.002;2022-08-03T11:11:37;23.75;;;8.98;;
54517;SDS011;40423;53.176;6.002;2022-08-03T11:14:10;21.95;;;8.70;;
54517;SDS011;40423;53.176;6.002;2022-08-03T11:16:39;19.80;;;8.65;;
54517;SDS011;40423;53.176;6.002;2022-08-03T11:19:11;18.85;;;8.00;;
54517;SDS011;40423;53.176;6.002;2022-08-03T11:35:14;23.33;;;9.57;;
54517;SDS011;40423;53.176;6.002;2022-08-03T11:45:57;20.10;;;8.05;;
54517;SDS011;40423;53.176;6.002;2022-08-03T11:48:38;20.75;;;10.23;;
54517;SDS011;40423;53.176;6.002;2022-08-03T11:51:17;19.50;;;8.95;;
54517;SDS011;40423;53.176;6.002;2022-08-03T11:53:57;22.85;;;10.02;;
54517;SDS011;40423;53.176;6.002;2022-08-03T11:56:24;18.83;;;9.00;;
54517;SDS011;40423;53.176;6.002;2022-08-03T11:58:53;18.77;;;8.55;;
54517;SDS011;40423;53.176;6.002;2022-08-03T12:01:20;22.42;;;9.32;;
54517;SDS011;40423;53.176;6.002;2022-08-03T12:03:47;17.58;;;8.75;;
54517;SDS011;40423;53.176;6.002;2022-08-03T12:06:14;22.20;;;9.13;;
54517;SDS011;40423;53.176;6.002;2022-08-03T12:08:42;18.15;;;9.30;;
54517;SDS011;40423;53.176;6.002;2022-08-03T12:11:10;32.88;;;10.90;;
54517;SDS011;40423;53.176;6.002;2022-08-03T12:13:47;25.73;;;10.02;;
54517;SDS011;40423;53.176;6.002;2022-08-03T12:16:24;17.85;;;8.82;;
54517;SDS011;40423;53.176;6.002;2022-08-03T12:18:56;17.90;;;8.50;;
54517;SDS011;40423;53.176;6.002;2022-08-03T12:21:23;18.67;;;9.88;;
54517;SDS011;40423;53.176;6.002;2022-08-03T12:23:49;19.55;;;9.18;;
54517;SDS011;40423;53.176;6.002;2022-08-03T12:26:15;21.05;;;9.35;;
54517;SDS011;40423;53.176;6.002;2022-08-03T12:28:47;23.55;;;10.55;;
54517;SDS011;40423;53.176;6.002;2022-08-03T12:31:14;19.90;;;10.07;;
54517;SDS011;40423;53.176;6.002;2022-08-03T12:33:54;17.95;;;9.60;;
54517;SDS011;40423;53.176;6.002;2022-08-03T12:36:23;17.97;;;10.30;;
54517;SDS011;40423;53.176;6.002;2022-08-03T12:38:59;24.55;;;11.20;;
54517;SDS011;40423;53.176;6.002;2022-08-03T12:41:27;19.35;;;9.30;;
54517;SDS011;40423;53.176;6.002;2022-08-03T12:44:16;20.70;;;10.13;;
54517;SDS011;40423;53.176;6.002;2022-08-03T12:46:55;18.58;;;9.25;;
54517;SDS011;40423;53.176;6.002;2022-08-03T12:49:22;21.08;;;10.48;;
54517;SDS011;40423;53.176;6.002;2022-08-03T12:54:21;19.13;;;9.98;;
54517;SDS011;40423;53.176;6.002;2022-08-03T12:57:04;16.92;;;9.65;;
54517;SDS011;40423;53.176;6.002;2022-08-03T13:01:58;24.13;;;11.25;;
54517;SDS011;40423;53.176;6.002;2022-08-03T13:04:28;20.58;;;10.57;;
54517;SDS011;40423;53.176;6.002;2022-08-03T13:07:03;20.88;;;10.77;;
54517;SDS011;40423;53.176;6.002;2022-08-03T13:09:39;21.10;;;9.52;;
54517;SDS011;40423;53.176;6.002;2022-08-03T13:12:10;23.30;;;11.35;;
54517;SDS011;40423;53.176;6.002;2022-08-03T13:14:38;20.83;;;9.23;;
54517;SDS011;40423;53.176;6.002;2022-08-03T13:17:04;22.35;;;9.70;;
54517;SDS011;40423;53.176;6.002;2022-08-03T13:19:34;18.10;;;10.15;;
54517;SDS011;40423;53.176;6.002;2022-08-03T13:22:15;20.55;;;8.77;;
54517;SDS011;40423;53.176;6.002;2022-08-03T13:24:46;17.77;;;8.82;;
54517;SDS011;40423;53.176;6.002;2022-08-03T13:27:14;17.73;;;9.52;;
54517;SDS011;40423;53.176;6.002;2022-08-03T13:29:40;18.00;;;9.48;;
54517;SDS011;40423;53.176;6.002;2022-08-03T13:32:09;18.38;;;8.90;;
54517;SDS011;40423;53.176;6.002;2022-08-03T13:34:35;14.77;;;7.57;;
54517;SDS011;40423;53.176;6.002;2022-08-03T13:37:02;13.88;;;7.65;;
54517;SDS011;40423;53.176;6.002;2022-08-03T13:39:27;20.80;;;9.57;;
54517;SDS011;40423;53.176;6.002;2022-08-03T13:41:53;21.27;;;10.43;;
54517;SDS011;40423;53.176;6.002;2022-08-03T13:44:19;18.52;;;10.90;;
54517;SDS011;40423;53.176;6.002;2022-08-03T13:46:45;19.80;;;10.55;;
54517;SDS011;40423;53.176;6.002;2022-08-03T13:49:12;17.15;;;8.65;;
54517;SDS011;40423;53.176;6.002;2022-08-03T13:51:38;18.35;;;9.65;;
54517;SDS011;40423;53.176;6.002;2022-08-03T13:54:04;21.95;;;10.32;;
54517;SDS011;40423;53.176;6.002;2022-08-03T13:56:30;17.88;;;10.32;;
54517;SDS011;40423;53.176;6.002;2022-08-03T13:58:57;19.73;;;10.68;;
54517;SDS011;40423;53.176;6.002;2022-08-03T14:01:26;20.35;;;9.48;;
54517;SDS011;40423;53.176;6.002;2022-08-03T14:03:52;15.20;;;8.95;;
54517;SDS011;40423;53.176;6.002;2022-08-03T14:06:22;18.90;;;9.15;;
54517;SDS011;40423;53.176;6.002;2022-08-03T14:08:49;20.83;;;10.52;;
54517;SDS011;40423;53.176;6.002;2022-08-03T14:11:15;18.05;;;9.57;;
54517;SDS011;40423;53.176;6.002;2022-08-03T14:13:42;28.85;;;9.93;;
54517;SDS011;40423;53.176;6.002;2022-08-03T14:16:08;20.70;;;9.00;;
54517;SDS011;40423;53.176;6.002;2022-08-03T14:18:34;16.60;;;8.18;;
54517;SDS011;40423;53.176;6.002;2022-08-03T14:21:03;19.08;;;9.60;;
54517;SDS011;40423;53.176;6.002;2022-08-03T14:23:29;22.83;;;9.52;;
54517;SDS011;40423;53.176;6.002;2022-08-03T14:25:55;22.52;;;10.18;;
54517;SDS011;40423;53.176;6.002;2022-08-03T14:28:21;18.45;;;9.43;;
54517;SDS011;40423;53.176;6.002;2022-08-03T14:30:48;15.95;;;8.55;;
54517;SDS011;40423;53.176;6.002;2022-08-03T14:33:14;14.88;;;8.98;;
54517;SDS011;40423;53.176;6.002;2022-08-03T14:35:41;16.80;;;8.15;;
54517;SDS011;40423;53.176;6.002;2022-08-03T14:38:07;15.48;;;7.85;;
54517;SDS011;40423;53.176;6.002;2022-08-03T14:40:33;20.70;;;8.73;;
54517;SDS011;40423;53.176;6.002;2022-08-03T14:42:58;18.17;;;8.07;;
54517;SDS011;40423;53.176;6.002;2022-08-03T14:45:24;17.33;;;7.97;;
54517;SDS011;40423;53.176;6.002;2022-08-03T14:47:50;17.70;;;7.10;;
54517;SDS011;40423;53.176;6.002;2022-08-03T14:50:15;17.75;;;7.55;;
54517;SDS011;40423;53.176;6.002;2022-08-03T14:52:41;19.33;;;8.57;;
54517;SDS011;40423;53.176;6.002;2022-08-03T14:55:07;14.00;;;6.72;;
54517;SDS011;40423;53.176;6.002;2022-08-03T14:57:54;17.85;;;7.30;;
54517;SDS011;40423;53.176;6.002;2022-08-03T15:00:19;16.48;;;7.50;;
54517;SDS011;40423;53.176;6.002;2022-08-03T15:02:45;15.95;;;7.38;;
54517;SDS011;40423;53.176;6.002;2022-08-03T15:05:10;21.50;;;8.15;;
54517;SDS011;40423;53.176;6.002;2022-08-03T15:07:37;15.48;;;7.93;;
54517;SDS011;40423;53.176;6.002;2022-08-03T15:10:03;13.38;;;7.30;;
54517;SDS011;40423;53.176;6.002;2022-08-03T15:12:29;16.25;;;7.63;;
54517;SDS011;40423;53.176;6.002;2022-08-03T15:14:56;14.63;;;6.47;;
54517;SDS011;40423;53.176;6.002;2022-08-03T15:17:22;13.18;;;6.50;;
54517;SDS011;40423;53.176;6.002;2022-08-03T15:19:47;18.45;;;7.07;;
54517;SDS011;40423;53.176;6.002;2022-08-03T15:22:13;18.92;;;5.75;;
54517;SDS011;40423;53.176;6.002;2022-08-03T15:24:41;18.85;;;5.72;;
54517;SDS011;40423;53.176;6.002;2022-08-03T15:27:10;16.00;;;6.05;;
54517;SDS011;40423;53.176;6.002;2022-08-03T15:29:36;15.52;;;5.95;;
54517;SDS011;40423;53.176;6.002;2022-08-03T15:32:01;19.10;;;6.03;;
54517;SDS011;40423;53.176;6.002;2022-08-03T15:34:27;15.25;;;6.68;;
54517;SDS011;40423;53.176;6.002;2022-08-03T15:36:53;16.38;;;5.90;;
54517;SDS011;40423;53.176;6.002;2022-08-03T15:39:18;19.67;;;7.15;;
54517;SDS011;40423;53.176;6.002;2022-08-03T15:41:44;17.95;;;6.35;;
54517;SDS011;40423;53.176;6.002;2022-08-03T15:44:10;20.33;;;7.38;;